Time;durP1;ratioP1;P1;durP2;ratioP2;P2;SDS_P1;SDS_P2;PMS_P1;PMS_P2;Temp;Humidity;BMP_temperature;BMP_pressure;BME280_temperature;BME280_humidity;BME280_pressure;Samples;Min_cycle;Max_cycle;Signal;HPM_P1;HPM_P2
2021/09/17 00:01:14;;;;;;;21.13;14.15;;;;;;;;;;5015428;28;20041;-64
2021/09/17 00:03:40;;;;;;;22.90;15.40;;;;;;;;;;5015715;28;20461;-63
2021/09/17 00:06:05;;;;;;;18.15;14.85;;;;;;;;;;5015187;28;20480;-64
2021/09/17 00:08:30;;;;;;;24.55;16.08;;;;;;;;;;5015819;28;20024;-64
2021/09/17 00:10:55;;;;;;;21.02;15.27;;;;;;;;;;5015011;28;20041;-63
2021/09/17 00:13:21;;;;;;;21.52;16.15;;;;;;;;;;5015462;28;20018;-63
2021/09/17 00:15:46;;;;;;;23.92;15.60;;;;;;;;;;5015429;28;20139;-64
2021/09/17 00:18:11;;;;;;;23.05;15.80;;;;;;;;;;5015549;28;20021;-63
2021/09/17 00:20:36;;;;;;;22.83;16.17;;;;;;;;;;5014947;28;20041;-63
2021/09/17 00:23:02;;;;;;;27.27;17.60;;;;;;;;;;5015271;28;20107;-63
2021/09/17 00:25:27;;;;;;;21.50;15.82;;;;;;;;;;5015160;28;20041;-63
2021/09/17 00:27:52;;;;;;;22.35;16.70;;;;;;;;;;5015426;28;20482;-63
2021/09/17 00:30:18;;;;;;;23.80;17.13;;;;;;;;;;5014601;28;20028;-63
2021/09/17 00:32:43;;;;;;;31.42;17.50;;;;;;;;;;5014419;28;20026;-63
2021/09/17 00:35:08;;;;;;;26.88;16.90;;;;;;;;;;5014760;28;20020;-64
2021/09/17 00:37:34;;;;;;;21.00;16.23;;;;;;;;;;5015123;28;20231;-64
2021/09/17 00:39:59;;;;;;;26.35;17.05;;;;;;;;;;5015012;28;20017;-63
2021/09/17 00:42:24;;;;;;;29.98;17.75;;;;;;;;;;5013326;28;20046;-63
2021/09/17 00:44:49;;;;;;;29.27;16.42;;;;;;;;;;5013871;28;20014;-64
2021/09/17 00:47:15;;;;;;;23.20;16.52;;;;;;;;;;5014586;28;20034;-63
2021/09/17 00:49:40;;;;;;;21.15;16.63;;;;;;;;;;5014867;28;20093;-65
2021/09/17 00:52:05;;;;;;;23.48;15.48;;;;;;;;;;5014486;28;20038;-63
2021/09/17 00:54:34;;;;;;;23.15;15.85;;;;;;;;;;5015299;28;20499;-64
2021/09/17 00:56:59;;;;;;;23.30;16.27;;;;;;;;;;5014406;28;20029;-64
2021/09/17 00:59:24;;;;;;;20.58;16.05;;;;;;;;;;5014848;28;20048;-63
2021/09/17 01:01:49;;;;;;;22.80;16.67;;;;;;;;;;5014264;28;20508;-63
2021/09/17 01:04:15;;;;;;;23.70;17.13;;;;;;;;;;5014606;28;20468;-63
2021/09/17 01:06:40;;;;;;;23.60;17.88;;;;;;;;;;5014195;28;20042;-63
2021/09/17 01:09:05;;;;;;;21.17;16.48;;;;;;;;;;5014358;28;20046;-64
2021/09/17 01:11:31;;;;;;;23.08;17.58;;;;;;;;;;5014194;28;20057;-63
2021/09/17 01:13:56;;;;;;;25.15;18.70;;;;;;;;;;5014553;28;20010;-64
2021/09/17 01:16:21;;;;;;;28.33;16.30;;;;;;;;;;5012891;28;20117;-64
2021/09/17 01:18:46;;;;;;;26.75;18.75;;;;;;;;;;5013129;28;20045;-64
2021/09/17 01:21:12;;;;;;;26.05;19.00;;;;;;;;;;5013955;28;20065;-64
2021/09/17 01:23:37;;;;;;;23.10;16.73;;;;;;;;;;5014185;28;20484;-63
2021/09/17 01:26:02;;;;;;;29.30;17.58;;;;;;;;;;5014032;28;20397;-63
2021/09/17 01:28:28;;;;;;;28.35;18.90;;;;;;;;;;5014416;28;20487;-64
2021/09/17 01:30:53;;;;;;;30.17;19.52;;;;;;;;;;5013772;28;20033;-63
2021/09/17 01:33:19;;;;;;;25.85;18.77;;;;;;;;;;5014178;28;20427;-64
2021/09/17 01:35:44;;;;;;;34.13;20.83;;;;;;;;;;5013682;28;20123;-63
2021/09/17 01:38:09;;;;;;;28.10;19.33;;;;;;;;;;5014214;28;20022;-63
2021/09/17 01:40:35;;;;;;;24.52;17.65;;;;;;;;;;5013846;28;20108;-63
2021/09/17 01:43:00;;;;;;;23.05;17.58;;;;;;;;;;5013523;28;20040;-63
2021/09/17 01:45:25;;;;;;;23.95;18.50;;;;;;;;;;5016551;28;20095;-64
2021/09/17 01:47:50;;;;;;;25.45;18.38;;;;;;;;;;5033644;28;20033;-63
2021/09/17 01:50:15;;;;;;;25.42;18.10;;;;;;;;;;5031054;28;20025;-63
2021/09/17 01:52:41;;;;;;;26.42;18.92;;;;;;;;;;5013972;28;20029;-63
2021/09/17 01:55:06;;;;;;;24.25;16.83;;;;;;;;;;5013238;28;20440;-63
2021/09/17 01:57:31;;;;;;;30.00;17.33;;;;;;;;;;5013558;28;20068;-63
2021/09/17 01:59:57;;;;;;;24.98;17.27;;;;;;;;;;5013650;28;20100;-64
2021/09/17 02:02:22;;;;;;;23.48;16.67;;;;;;;;;;5012944;28;20068;-64
2021/09/17 02:04:47;;;;;;;24.20;15.98;;;;;;;;;;5013537;28;20489;-63
2021/09/17 02:07:13;;;;;;;25.50;16.13;;;;;;;;;;5011719;28;20357;-64
2021/09/17 02:09:38;;;;;;;20.63;16.40;;;;;;;;;;5013338;28;20079;-64
2021/09/17 02:12:04;;;;;;;29.02;17.83;;;;;;;;;;5013114;28;20042;-63
2021/09/17 02:14:29;;;;;;;26.45;19.45;;;;;;;;;;5013617;28;20014;-63
2021/09/17 02:16:54;;;;;;;25.90;18.30;;;;;;;;;;5012287;28;20493;-63
2021/09/17 02:19:20;;;;;;;25.75;18.33;;;;;;;;;;5013378;28;20029;-64
2021/09/17 02:21:49;;;;;;;26.05;18.35;;;;;;;;;;5012778;28;20045;-63
2021/09/17 02:24:14;;;;;;;25.83;17.23;;;;;;;;;;5013380;28;20034;-63
2021/09/17 02:26:39;;;;;;;23.67;17.30;;;;;;;;;;5026386;28;20084;-63
2021/09/17 02:29:05;;;;;;;26.73;17.45;;;;;;;;;;5033293;28;20021;-63
2021/09/17 02:31:31;;;;;;;27.13;16.85;;;;;;;;;;5032408;28;20068;-63
2021/09/17 02:33:56;;;;;;;27.55;18.58;;;;;;;;;;5032759;28;20025;-63
2021/09/17 02:36:21;;;;;;;24.35;17.13;;;;;;;;;;5020124;28;20046;-64
2021/09/17 02:38:46;;;;;;;24.77;18.20;;;;;;;;;;5013035;28;20026;-64
2021/09/17 02:41:11;;;;;;;27.17;18.05;;;;;;;;;;5021215;28;20495;-63
2021/09/17 02:43:37;;;;;;;26.42;18.95;;;;;;;;;;5032705;28;20388;-64
2021/09/17 02:46:02;;;;;;;26.05;18.52;;;;;;;;;;5032409;28;20476;-63
2021/09/17 02:48:27;;;;;;;25.60;18.55;;;;;;;;;;5032647;28;20021;-64
2021/09/17 02:50:53;;;;;;;28.35;19.55;;;;;;;;;;5024758;28;20366;-63
2021/09/17 02:53:18;;;;;;;26.25;18.10;;;;;;;;;;5011795;28;20026;-63
2021/09/17 02:55:43;;;;;;;26.27;18.38;;;;;;;;;;5015801;28;20054;-63
2021/09/17 02:58:08;;;;;;;26.67;19.38;;;;;;;;;;5017161;28;20100;-63
2021/09/17 03:00:35;;;;;;;24.50;18.42;;;;;;;;;;5016525;28;20087;-63
2021/09/17 03:03:00;;;;;;;29.98;19.67;;;;;;;;;;5016803;28;20041;-64
2021/09/17 03:05:25;;;;;;;32.70;19.40;;;;;;;;;;5019732;28;20040;-63
2021/09/17 03:07:50;;;;;;;31.13;19.35;;;;;;;;;;5036500;28;20117;-63
2021/09/17 03:10:16;;;;;;;27.13;18.70;;;;;;;;;;5034817;28;20128;-63
2021/09/17 03:12:41;;;;;;;27.42;18.55;;;;;;;;;;5036482;28;20026;-63
2021/09/17 03:15:06;;;;;;;30.42;18.70;;;;;;;;;;5035308;28;20021;-63
2021/09/17 03:17:32;;;;;;;24.15;18.55;;;;;;;;;;5016712;28;20044;-63
2021/09/17 03:19:57;;;;;;;22.52;15.20;;;;;;;;;;5016456;28;20018;-63
2021/09/17 03:22:22;;;;;;;19.90;14.73;;;;;;;;;;5035418;28;20038;-64
2021/09/17 03:24:47;;;;;;;21.83;16.90;;;;;;;;;;5036442;28;20337;-64
2021/09/17 03:27:13;;;;;;;23.42;15.25;;;;;;;;;;5035768;28;20408;-63
2021/09/17 03:29:38;;;;;;;26.95;17.67;;;;;;;;;;5036045;28;20052;-63
2021/09/17 03:32:03;;;;;;;26.15;17.83;;;;;;;;;;5018759;28;20057;-63
2021/09/17 03:34:29;;;;;;;23.95;17.63;;;;;;;;;;5016147;28;20113;-63
2021/09/17 03:36:54;;;;;;;25.88;15.25;;;;;;;;;;5031252;28;20068;-63
2021/09/17 03:39:19;;;;;;;21.13;16.48;;;;;;;;;;5035624;28;20013;-64
2021/09/17 03:41:45;;;;;;;22.42;17.48;;;;;;;;;;5021217;28;20034;-63
2021/09/17 03:44:13;;;;;;;25.88;17.63;;;;;;;;;;5015928;28;20176;-63
2021/09/17 03:46:39;;;;;;;25.13;17.55;;;;;;;;;;5014325;28;20609;-63
2021/09/17 03:49:04;;;;;;;25.73;17.65;;;;;;;;;;5015884;28;20032;-64
2021/09/17 03:51:29;;;;;;;24.85;17.00;;;;;;;;;;5015355;28;20109;-63
2021/09/17 03:53:54;;;;;;;26.80;17.65;;;;;;;;;;5015728;28;20029;-63
2021/09/17 03:56:20;;;;;;;22.05;16.98;;;;;;;;;;5015253;28;20038;-63
2021/09/17 03:58:45;;;;;;;22.88;17.08;;;;;;;;;;5015757;28;20587;-63
2021/09/17 04:01:10;;;;;;;24.15;18.40;;;;;;;;;;5015105;28;20121;-63
2021/09/17 04:03:35;;;;;;;26.95;19.05;;;;;;;;;;5014287;28;20088;-63
2021/09/17 04:06:01;;;;;;;26.92;17.63;;;;;;;;;;5015203;28;20041;-64
2021/09/17 04:08:26;;;;;;;25.92;17.75;;;;;;;;;;5014596;28;20026;-64
2021/09/17 04:10:51;;;;;;;27.52;19.10;;;;;;;;;;5013751;28;20476;-63
2021/09/17 04:13:16;;;;;;;18.20;13.75;;;;;;;;;;5015637;28;20021;-63
2021/09/17 04:15:43;;;;;;;16.58;12.95;;;;;;;;;;5015069;28;20745;-64
2021/09/17 04:18:08;;;;;;;17.77;13.55;;;;;;;;;;5015486;28;20042;-63
2021/09/17 04:20:34;;;;;;;17.08;13.35;;;;;;;;;;5015315;28;20392;-64
2021/09/17 04:22:59;;;;;;;18.77;14.93;;;;;;;;;;5015105;28;20029;-63
2021/09/17 04:25:24;;;;;;;20.40;15.45;;;;;;;;;;5014985;28;20400;-63
2021/09/17 04:27:49;;;;;;;21.40;16.00;;;;;;;;;;5015128;28;20480;-63
2021/09/17 04:30:15;;;;;;;20.23;15.38;;;;;;;;;;5014729;28;20020;-64
2021/09/17 04:32:41;;;;;;;20.35;15.52;;;;;;;;;;5015088;28;20109;-64
2021/09/17 04:35:06;;;;;;;21.67;15.25;;;;;;;;;;5014779;28;20026;-63
2021/09/17 04:37:31;;;;;;;20.58;14.43;;;;;;;;;;5015122;28;20427;-63
2021/09/17 04:39:57;;;;;;;18.92;13.80;;;;;;;;;;5015325;28;20045;-65
2021/09/17 04:42:22;;;;;;;23.60;14.35;;;;;;;;;;5014305;28;20034;-63
2021/09/17 04:44:47;;;;;;;18.35;13.48;;;;;;;;;;5015065;28;20152;-63
2021/09/17 04:47:13;;;;;;;19.55;14.40;;;;;;;;;;5014672;28;20420;-64
2021/09/17 04:49:38;;;;;;;20.23;13.68;;;;;;;;;;5014876;28;20357;-64
2021/09/17 04:52:03;;;;;;;16.92;13.43;;;;;;;;;;5014462;28;20036;-64
2021/09/17 04:54:28;;;;;;;19.10;13.52;;;;;;;;;;5013393;28;20112;-64
2021/09/17 04:56:54;;;;;;;17.63;12.65;;;;;;;;;;5014301;28;20030;-64
2021/09/17 04:59:19;;;;;;;17.17;12.70;;;;;;;;;;5014876;28;20026;-64
2021/09/17 05:01:44;;;;;;;19.88;12.60;;;;;;;;;;5014197;28;20540;-64
2021/09/17 05:04:09;;;;;;;17.42;13.27;;;;;;;;;;5014656;28;20117;-64
2021/09/17 05:06:35;;;;;;;18.08;12.88;;;;;;;;;;5014528;28;20034;-63
2021/09/17 05:09:00;;;;;;;19.02;13.10;;;;;;;;;;5014605;28;20058;-63
2021/09/17 05:11:25;;;;;;;18.35;14.38;;;;;;;;;;5014476;28;20046;-64
2021/09/17 05:13:50;;;;;;;18.65;13.60;;;;;;;;;;5013281;28;20392;-64
2021/09/17 05:16:16;;;;;;;24.33;13.73;;;;;;;;;;5014162;28;20030;-63
2021/09/17 05:18:43;;;;;;;20.27;14.65;;;;;;;;;;5013869;28;20152;-63
2021/09/17 05:21:08;;;;;;;20.13;15.15;;;;;;;;;;5014107;28;20045;-63
2021/09/17 05:23:34;;;;;;;18.42;14.50;;;;;;;;;;5014535;28;20034;-64
2021/09/17 05:25:59;;;;;;;17.27;12.40;;;;;;;;;;5012592;28;20499;-64
2021/09/17 05:28:25;;;;;;;15.68;12.75;;;;;;;;;;5014159;28;20011;-63
2021/09/17 05:30:50;;;;;;;16.25;12.52;;;;;;;;;;5013995;28;20034;-64
2021/09/17 05:33:15;;;;;;;16.70;12.98;;;;;;;;;;5013879;28;20018;-63
2021/09/17 05:35:40;;;;;;;16.92;11.32;;;;;;;;;;5013883;28;20108;-64
2021/09/17 05:38:06;;;;;;;18.90;11.20;;;;;;;;;;5014022;28;20461;-64
2021/09/17 05:40:31;;;;;;;14.23;11.18;;;;;;;;;;5012218;28;20022;-63
2021/09/17 05:42:56;;;;;;;14.07;11.07;;;;;;;;;;5012221;28;20033;-64
2021/09/17 05:45:21;;;;;;;13.73;11.00;;;;;;;;;;5013542;28;20087;-63
2021/09/17 05:47:46;;;;;;;14.15;10.18;;;;;;;;;;5014381;28;20108;-63
2021/09/17 05:50:12;;;;;;;14.93;11.15;;;;;;;;;;5013449;28;20033;-63
2021/09/17 05:52:37;;;;;;;12.55;10.95;;;;;;;;;;5013817;28;20029;-64
2021/09/17 05:55:03;;;;;;;12.63;10.10;;;;;;;;;;5013561;28;20030;-63
2021/09/17 05:57:29;;;;;;;14.77;10.48;;;;;;;;;;5013788;28;20405;-63
2021/09/17 05:59:54;;;;;;;14.93;11.38;;;;;;;;;;5012435;28;20022;-64
2021/09/17 06:02:19;;;;;;;18.13;11.32;;;;;;;;;;5012815;28;20060;-64
2021/09/17 06:04:45;;;;;;;15.88;11.35;;;;;;;;;;5013717;28;20048;-64
2021/09/17 06:07:10;;;;;;;15.75;10.32;;;;;;;;;;5011782;28;20026;-64
2021/09/17 06:09:35;;;;;;;12.82;9.50;;;;;;;;;;5013406;28;20052;-64
2021/09/17 06:12:01;;;;;;;14.88;9.85;;;;;;;;;;5013165;28;20388;-65
2021/09/17 06:14:26;;;;;;;15.93;9.32;;;;;;;;;;5013419;28;20030;-64
2021/09/17 06:16:51;;;;;;;13.75;8.18;;;;;;;;;;5012988;28;20121;-64
2021/09/17 06:19:16;;;;;;;13.40;7.82;;;;;;;;;;5013257;28;20116;-64
2021/09/17 06:21:41;;;;;;;13.48;9.07;;;;;;;;;;5012929;28;20112;-65
2021/09/17 06:24:07;;;;;;;11.23;7.97;;;;;;;;;;5013257;28;20036;-64
2021/09/17 06:26:32;;;;;;;15.07;9.32;;;;;;;;;;5012974;28;20030;-64
2021/09/17 06:29:01;;;;;;;22.38;9.32;;;;;;;;;;5012425;28;20026;-64
2021/09/17 06:31:26;;;;;;;32.67;9.88;;;;;;;;;;5012563;28;20111;-64
2021/09/17 06:33:52;;;;;;;26.05;10.23;;;;;;;;;;5013367;28;20147;-64
2021/09/17 06:36:17;;;;;;;30.30;11.18;;;;;;;;;;5012620;28;20026;-64
2021/09/17 06:38:42;;;;;;;25.90;10.95;;;;;;;;;;5011796;28;20025;-64
2021/09/17 06:41:07;;;;;;;29.40;10.93;;;;;;;;;;5012602;28;20030;-64
2021/09/17 06:43:32;;;;;;;22.75;11.35;;;;;;;;;;5012982;28;20443;-64
2021/09/17 06:45:58;;;;;;;15.73;10.60;;;;;;;;;;5012566;28;20030;-64
2021/09/17 06:48:23;;;;;;;20.67;10.88;;;;;;;;;;5013246;28;20161;-64
2021/09/17 06:50:48;;;;;;;23.42;11.68;;;;;;;;;;5012551;28;20468;-64
2021/09/17 06:53:14;;;;;;;28.52;12.88;;;;;;;;;;5013012;28;20018;-64
2021/09/17 06:55:39;;;;;;;26.60;12.63;;;;;;;;;;5012719;28;20392;-64
2021/09/17 06:58:05;;;;;;;20.30;12.18;;;;;;;;;;5011546;28;20018;-64
2021/09/17 07:00:31;;;;;;;28.55;11.90;;;;;;;;;;5011131;28;20054;-64
2021/09/17 07:02:57;;;;;;;21.42;12.27;;;;;;;;;;5011686;28;20084;-65
2021/09/17 07:05:22;;;;;;;22.10;12.50;;;;;;;;;;5012593;28;20026;-65
2021/09/17 07:07:47;;;;;;;32.10;12.73;;;;;;;;;;5012780;28;20033;-64
2021/09/17 07:10:13;;;;;;;28.02;12.30;;;;;;;;;;5012121;28;20054;-65
2021/09/17 07:12:38;;;;;;;18.55;11.50;;;;;;;;;;5012613;28;20022;-64
2021/09/17 07:15:04;;;;;;;21.55;11.98;;;;;;;;;;5012067;28;20029;-65
2021/09/17 07:17:29;;;;;;;26.65;12.07;;;;;;;;;;5012881;28;20018;-65
2021/09/17 07:19:54;;;;;;;24.83;11.93;;;;;;;;;;5012667;28;20024;-65
2021/09/17 07:22:20;;;;;;;18.52;10.95;;;;;;;;;;5011930;28;20045;-65
2021/09/17 07:24:46;;;;;;;20.42;10.32;;;;;;;;;;5012598;28;20080;-64
2021/09/17 07:27:11;;;;;;;21.10;10.95;;;;;;;;;;5012221;28;20064;-65
2021/09/17 07:29:37;;;;;;;22.30;12.73;;;;;;;;;;5012622;28;20026;-65
2021/09/17 07:32:02;;;;;;;25.73;12.07;;;;;;;;;;5011942;28;20412;-65
2021/09/17 07:34:28;;;;;;;24.05;12.77;;;;;;;;;;5012688;28;20053;-65
2021/09/17 07:36:54;;;;;;;24.60;13.15;;;;;;;;;;5012104;28;20459;-65
2021/09/17 07:39:19;;;;;;;28.75;12.88;;;;;;;;;;5012544;28;20046;-65
2021/09/17 07:41:44;;;;;;;31.42;12.52;;;;;;;;;;5014874;28;20026;-65
2021/09/17 07:44:09;;;;;;;32.38;12.13;;;;;;;;;;5016035;28;20034;-64
2021/09/17 07:46:34;;;;;;;32.42;13.77;;;;;;;;;;5015209;28;20030;-65
2021/09/17 07:49:00;;;;;;;27.80;11.90;;;;;;;;;;5016250;28;20022;-65
2021/09/17 07:51:25;;;;;;;23.67;11.02;;;;;;;;;;5015719;28;20040;-65
2021/09/17 07:53:50;;;;;;;25.25;12.25;;;;;;;;;;5016320;28;20029;-65
2021/09/17 07:56:15;;;;;;;27.63;13.18;;;;;;;;;;5015732;28;20507;-65
2021/09/17 07:58:41;;;;;;;28.30;13.65;;;;;;;;;;5016033;28;20376;-65
2021/09/17 08:01:06;;;;;;;23.33;12.93;;;;;;;;;;5015566;28;20388;-65
2021/09/17 08:03:32;;;;;;;31.65;13.02;;;;;;;;;;5016014;28;20356;-65
2021/09/17 08:06:00;;;;;;;30.58;13.35;;;;;;;;;;5015551;28;20073;-65
2021/09/17 08:08:26;;;;;;;36.97;14.80;;;;;;;;;;5015779;28;20396;-64
2021/09/17 08:10:51;;;;;;;49.25;16.77;;;;;;;;;;5015273;28;20041;-64
2021/09/17 08:13:16;;;;;;;38.00;16.13;;;;;;;;;;5015603;28;20022;-64
2021/09/17 08:15:41;;;;;;;50.38;17.48;;;;;;;;;;5015184;28;20033;-65
2021/09/17 08:18:06;;;;;;;45.15;17.75;;;;;;;;;;5015491;28;20026;-65
2021/09/17 08:20:32;;;;;;;55.67;19.05;;;;;;;;;;5015502;28;20030;-64
2021/09/17 08:22:57;;;;;;;53.38;19.30;;;;;;;;;;5015343;28;20484;-64
2021/09/17 08:25:22;;;;;;;37.80;17.42;;;;;;;;;;5014921;28;20034;-65
2021/09/17 08:27:47;;;;;;;63.75;18.45;;;;;;;;;;5015261;28;20022;-65
2021/09/17 08:30:13;;;;;;;37.30;16.50;;;;;;;;;;5014728;28;20023;-65
2021/09/17 08:32:39;;;;;;;48.13;17.08;;;;;;;;;;5015151;28;20029;-65
2021/09/17 08:35:05;;;;;;;37.47;16.13;;;;;;;;;;5015037;28;20029;-65
2021/09/17 08:37:30;;;;;;;36.13;17.33;;;;;;;;;;5015152;28;20010;-65
2021/09/17 08:39:55;;;;;;;34.38;16.27;;;;;;;;;;5015228;28;20032;-65
2021/09/17 08:42:21;;;;;;;38.00;16.27;;;;;;;;;;5014606;28;20120;-65
2021/09/17 08:44:46;;;;;;;31.90;16.20;;;;;;;;;;5013833;28;20065;-65
2021/09/17 08:47:15;;;;;;;32.20;15.07;;;;;;;;;;5014611;28;20032;-65
2021/09/17 08:49:40;;;;;;;30.45;15.02;;;;;;;;;;5015076;28;20050;-65
2021/09/17 08:52:05;;;;;;;35.25;15.60;;;;;;;;;;5013679;28;20065;-65
2021/09/17 08:54:31;;;;;;;35.83;15.50;;;;;;;;;;5015093;28;20079;-65
2021/09/17 08:56:56;;;;;;;40.70;15.80;;;;;;;;;;5014414;28;20133;-65
2021/09/17 08:59:21;;;;;;;37.60;14.85;;;;;;;;;;5014712;28;20053;-65
2021/09/17 09:01:46;;;;;;;31.60;14.93;;;;;;;;;;5014413;28;20026;-65
2021/09/17 09:04:13;;;;;;;27.95;13.55;;;;;;;;;;5014708;28;20080;-64
2021/09/17 09:06:39;;;;;;;32.65;15.30;;;;;;;;;;5014271;28;20038;-64
2021/09/17 09:09:07;;;;;;;30.35;15.07;;;;;;;;;;5014446;28;20489;-64
2021/09/17 09:11:33;;;;;;;29.58;14.50;;;;;;;;;;5012854;28;20039;-64
2021/09/17 09:13:59;;;;;;;21.98;12.88;;;;;;;;;;5014332;28;20030;-64
2021/09/17 09:16:24;;;;;;;20.05;12.70;;;;;;;;;;5014065;28;20040;-64
2021/09/17 09:18:49;;;;;;;28.17;12.45;;;;;;;;;;5013451;28;20022;-65
2021/09/17 09:21:25;;;;;;;23.05;12.23;;;;;;;;;;5012674;28;20030;-65
2021/09/17 09:23:56;;;;;;;25.52;11.55;;;;;;;;;;5014284;28;20029;-65
2021/09/17 09:26:21;;;;;;;20.25;11.25;;;;;;;;;;5012428;28;20033;-65
2021/09/17 09:28:48;;;;;;;25.30;12.38;;;;;;;;;;5013043;28;20109;-65
2021/09/17 09:31:14;;;;;;;22.40;12.45;;;;;;;;;;5013958;28;20126;-65
2021/09/17 09:33:42;;;;;;;25.25;11.65;;;;;;;;;;5014387;28;20018;-66
2021/09/17 09:36:14;;;;;;;18.23;11.65;;;;;;;;;;5013840;28;20473;-64
2021/09/17 09:38:46;;;;;;;26.23;12.07;;;;;;;;;;5014218;28;20033;-63
2021/09/17 09:41:17;;;;;;;20.73;11.65;;;;;;;;;;5013825;28;20052;-64
2021/09/17 09:43:49;;;;;;;24.77;11.88;;;;;;;;;;5014029;28;20029;-64
2021/09/17 09:46:24;;;;;;;28.60;11.23;;;;;;;;;;5013690;28;20487;-64
2021/09/17 09:48:58;;;;;;;22.92;11.52;;;;;;;;;;5006134;28;20036;-64
2021/09/17 09:51:23;;;;;;;25.77;11.15;;;;;;;;;;5004788;28;20455;-64
2021/09/17 09:53:49;;;;;;;26.40;11.82;;;;;;;;;;5013468;28;20025;-64
2021/09/17 09:56:15;;;;;;;22.92;11.20;;;;;;;;;;5013337;28;20026;-64
2021/09/17 09:58:40;;;;;;;21.52;11.27;;;;;;;;;;5013705;28;20056;-64
2021/09/17 10:01:05;;;;;;;19.58;9.80;;;;;;;;;;5012138;28;20034;-64
2021/09/17 10:03:30;;;;;;;21.73;11.00;;;;;;;;;;5012171;28;20025;-64
2021/09/17 10:05:55;;;;;;;17.70;11.05;;;;;;;;;;5011978;28;20029;-64
2021/09/17 10:08:21;;;;;;;21.40;10.07;;;;;;;;;;5013492;28;20022;-65
2021/09/17 10:10:46;;;;;;;16.02;10.02;;;;;;;;;;5011624;28;20271;-64
2021/09/17 10:13:11;;;;;;;16.17;10.15;;;;;;;;;;5013361;28;20029;-64
2021/09/17 10:15:36;;;;;;;15.70;10.55;;;;;;;;;;5013055;28;20037;-65
2021/09/17 10:18:01;;;;;;;16.80;10.27;;;;;;;;;;5013455;28;20033;-65
2021/09/17 10:20:34;;;;;;;17.70;10.73;;;;;;;;;;5012880;28;20044;-65
2021/09/17 10:22:59;;;;;;;15.00;9.45;;;;;;;;;;5013311;28;20437;-65
2021/09/17 10:25:25;;;;;;;17.70;10.07;;;;;;;;;;5011453;28;20044;-65
2021/09/17 10:28:01;;;;;;;18.20;9.73;;;;;;;;;;5013237;28;20022;-64
2021/09/17 10:30:28;;;;;;;16.85;9.32;;;;;;;;;;5012892;28;20384;-65
2021/09/17 10:32:53;;;;;;;12.25;8.68;;;;;;;;;;5013138;28;20018;-65
2021/09/17 10:35:31;;;;;;;19.42;9.77;;;;;;;;;;5012653;28;20026;-64
2021/09/17 10:37:56;;;;;;;16.15;9.50;;;;;;;;;;5013059;28;20050;-65
2021/09/17 10:40:40;;;;;;;19.23;9.48;;;;;;;;;;5012960;28;20053;-64
2021/09/17 10:43:08;;;;;;;15.10;8.10;;;;;;;;;;5013198;28;20117;-64
2021/09/17 10:45:37;;;;;;;20.25;10.48;;;;;;;;;;5012727;28;20037;-65
2021/09/17 10:48:03;;;;;;;17.60;9.52;;;;;;;;;;5013097;28;20037;-64
2021/09/17 10:50:38;;;;;;;24.50;10.68;;;;;;;;;;5012858;28;20030;-64
2021/09/17 10:53:03;;;;;;;20.00;9.50;;;;;;;;;;5013205;28;20084;-64
2021/09/17 10:55:43;;;;;;;27.30;10.07;;;;;;;;;;5012614;28;20129;-65
2021/09/17 10:58:21;;;;;;;20.38;9.50;;;;;;;;;;5012890;28;20491;-64
2021/09/17 11:00:52;;;;;;;21.42;11.80;;;;;;;;;;5012749;28;20061;-64
2021/09/17 11:03:36;;;;;;;20.88;10.73;;;;;;;;;;5012998;28;20415;-64
2021/09/17 11:08:44;;;;;;;28.48;10.77;;;;;;;;;;5013119;28;20041;-64
2021/09/17 11:11:29;;;;;;;18.95;10.07;;;;;;;;;;5012653;28;20026;-64
2021/09/17 11:13:57;;;;;;;28.10;12.50;;;;;;;;;;5012916;28;20036;-64
2021/09/17 11:16:23;;;;;;;26.42;11.55;;;;;;;;;;5013592;28;20030;-64
2021/09/17 11:19:01;;;;;;;27.73;12.75;;;;;;;;;;5015531;28;20069;-64
2021/09/17 11:21:29;;;;;;;25.17;11.70;;;;;;;;;;5016304;28;20485;-64
2021/09/17 11:23:55;;;;;;;25.85;11.80;;;;;;;;;;5016599;28;20037;-65
2021/09/17 11:26:30;;;;;;;26.75;11.57;;;;;;;;;;5014883;28;20037;-64
2021/09/17 11:28:59;;;;;;;22.77;11.20;;;;;;;;;;5016574;28;20499;-64
2021/09/17 11:31:31;;;;;;;22.38;10.07;;;;;;;;;;5014770;28;20568;-65
2021/09/17 11:33:57;;;;;;;29.50;10.30;;;;;;;;;;5016646;28;20018;-64
2021/09/17 11:36:35;;;;;;;18.83;9.23;;;;;;;;;;5014695;28;20034;-64
2021/09/17 11:39:16;;;;;;;23.38;9.15;;;;;;;;;;5016452;28;20071;-64
2021/09/17 11:41:42;;;;;;;20.98;9.48;;;;;;;;;;5016048;28;20038;-64
2021/09/17 11:44:07;;;;;;;14.63;8.43;;;;;;;;;;5016285;28;20136;-64
2021/09/17 11:46:32;;;;;;;21.83;8.35;;;;;;;;;;5016016;28;20050;-65
2021/09/17 11:48:57;;;;;;;16.77;7.68;;;;;;;;;;5015057;28;20014;-64
2021/09/17 11:51:23;;;;;;;19.33;7.93;;;;;;;;;;5015872;28;20042;-64
2021/09/17 11:53:48;;;;;;;18.27;8.32;;;;;;;;;;5015002;28;20152;-64
2021/09/17 11:56:13;;;;;;;10.80;6.90;;;;;;;;;;5015379;28;20045;-64
2021/09/17 11:58:42;;;;;;;12.25;6.75;;;;;;;;;;5014587;28;20113;-64
2021/09/17 12:01:22;;;;;;;16.75;7.97;;;;;;;;;;5015437;28;20452;-65
2021/09/17 12:03:47;;;;;;;18.30;7.85;;;;;;;;;;5014565;28;20480;-64
2021/09/17 12:06:13;;;;;;;13.32;7.78;;;;;;;;;;5015507;28;20034;-64
2021/09/17 12:08:38;;;;;;;22.33;8.93;;;;;;;;;;5014698;28;20025;-64
2021/09/17 12:11:04;;;;;;;15.80;7.50;;;;;;;;;;5015363;28;20041;-64
2021/09/17 12:13:29;;;;;;;19.15;8.73;;;;;;;;;;5015850;28;20194;-64
2021/09/17 12:15:55;;;;;;;23.65;8.63;;;;;;;;;;5015456;28;20033;-64
2021/09/17 12:18:21;;;;;;;22.08;8.52;;;;;;;;;;5015548;28;20029;-64
2021/09/17 12:20:47;;;;;;;24.20;9.55;;;;;;;;;;5015118;28;20088;-64
2021/09/17 12:23:13;;;;;;;24.52;8.68;;;;;;;;;;5014149;28;20437;-64
2021/09/17 12:25:38;;;;;;;22.15;8.48;;;;;;;;;;5015002;28;20040;-64
2021/09/17 12:28:05;;;;;;;21.45;9.40;;;;;;;;;;5014024;28;20104;-64
2021/09/17 12:30:31;;;;;;;30.10;9.07;;;;;;;;;;5013550;28;20029;-64
2021/09/17 12:33:07;;;;;;;21.30;8.55;;;;;;;;;;5015357;28;20018;-65
2021/09/17 12:35:32;;;;;;;22.73;8.50;;;;;;;;;;5013617;28;20028;-64
2021/09/17 12:37:58;;;;;;;21.33;7.68;;;;;;;;;;5015226;28;20014;-64
2021/09/17 12:40:27;;;;;;;18.83;7.45;;;;;;;;;;5014516;28;20129;-64
2021/09/17 12:42:59;;;;;;;17.27;8.75;;;;;;;;;;5014986;28;20018;-64
2021/09/17 12:45:25;;;;;;;21.23;8.90;;;;;;;;;;5014654;28;20034;-64
2021/09/17 12:47:51;;;;;;;14.52;8.27;;;;;;;;;;5014933;28;20018;-64
2021/09/17 12:50:16;;;;;;;17.80;8.82;;;;;;;;;;5014596;28;20102;-64
2021/09/17 12:52:45;;;;;;;17.38;9.43;;;;;;;;;;5014938;28;20109;-64
2021/09/17 12:55:24;;;;;;;16.50;8.90;;;;;;;;;;5014740;28;20022;-64
2021/09/17 12:58:05;;;;;;;17.40;9.50;;;;;;;;;;5014901;28;20030;-64
2021/09/17 13:00:31;;;;;;;20.13;10.45;;;;;;;;;;5014421;28;20038;-64
2021/09/17 13:02:57;;;;;;;17.15;9.05;;;;;;;;;;5014630;28;20061;-64
2021/09/17 13:05:22;;;;;;;14.20;9.57;;;;;;;;;;5014255;28;20030;-65
2021/09/17 13:07:47;;;;;;;16.30;9.35;;;;;;;;;;5014760;28;20460;-64
2021/09/17 13:10:12;;;;;;;18.65;9.90;;;;;;;;;;5014083;28;20038;-64
2021/09/17 13:12:38;;;;;;;18.65;10.30;;;;;;;;;;5014602;28;20026;-64
2021/09/17 13:15:03;;;;;;;19.27;10.18;;;;;;;;;;5013683;28;20018;-66
2021/09/17 13:17:29;;;;;;;17.75;9.20;;;;;;;;;;5014459;28;20354;-65
2021/09/17 13:19:54;;;;;;;23.48;10.52;;;;;;;;;;5014269;28;20025;-64
2021/09/17 13:22:19;;;;;;;13.10;7.88;;;;;;;;;;5013934;28;20037;-64
2021/09/17 13:24:44;;;;;;;21.10;10.82;;;;;;;;;;5014299;28;20453;-64
2021/09/17 13:27:10;;;;;;;18.85;11.13;;;;;;;;;;5013897;28;20030;-64
2021/09/17 13:29:35;;;;;;;20.20;9.70;;;;;;;;;;5014267;28;20022;-64
2021/09/17 13:32:00;;;;;;;23.08;11.02;;;;;;;;;;5012544;28;20030;-64
2021/09/17 13:34:25;;;;;;;18.48;10.35;;;;;;;;;;5012820;28;20014;-65
2021/09/17 13:36:50;;;;;;;26.40;8.60;;;;;;;;;;5013649;28;20033;-64
2021/09/17 13:39:16;;;;;;;19.35;8.98;;;;;;;;;;5013727;28;20486;-64
2021/09/17 13:41:41;;;;;;;19.88;8.55;;;;;;;;;;5012474;28;20030;-65
2021/09/17 13:44:06;;;;;;;17.55;9.15;;;;;;;;;;5013944;28;20541;-65
2021/09/17 13:46:31;;;;;;;16.98;9.82;;;;;;;;;;5013590;28;20030;-65
2021/09/17 13:48:57;;;;;;;15.13;9.82;;;;;;;;;;5013850;28;20475;-65
2021/09/17 13:51:22;;;;;;;19.45;9.25;;;;;;;;;;5013411;28;20045;-64
2021/09/17 13:53:47;;;;;;;25.98;9.95;;;;;;;;;;5013575;28;20029;-65
2021/09/17 13:56:12;;;;;;;18.77;10.35;;;;;;;;;;5013376;28;20025;-64
2021/09/17 13:58:37;;;;;;;17.98;10.18;;;;;;;;;;5012576;28;20026;-64
2021/09/17 14:01:03;;;;;;;14.15;9.85;;;;;;;;;;5013424;28;20041;-64
2021/09/17 14:03:28;;;;;;;15.32;10.02;;;;;;;;;;5013437;28;20480;-64
2021/09/17 14:05:53;;;;;;;17.30;10.07;;;;;;;;;;5012027;28;20025;-65
2021/09/17 14:08:18;;;;;;;19.38;9.82;;;;;;;;;;5013570;28;20033;-65
2021/09/17 14:10:43;;;;;;;18.25;10.57;;;;;;;;;;5013069;28;20124;-64
2021/09/17 14:13:09;;;;;;;17.10;10.48;;;;;;;;;;5012341;28;20469;-64
2021/09/17 14:15:34;;;;;;;20.60;10.65;;;;;;;;;;5013079;28;20433;-64